メインページ
METAR-TAF:

METAR-TAF

空港 :

シアトル・タコマ国際空港

シアトル / タコマ, ワシントン, アメリカ合衆国

緯度: 47-26-41N, 経度: 122-18-49W, 海抜: 130m

現時点の気象観測

当レポートは1時間7分前の16:53(UTC)に作成
西の風 5kt
気温 21°C
湿度 56%
気圧 1016 hPa
視程: 16.1km
晴天

METAR: KSEA 211653Z 26005KT 10SM CLR 21/12 A3001 RMK AO2 SLP166 T02110122 $

時間: 11:00 (18:00 UTC)

予報

当レポートは34分前の17:26(UTC)に作成
予報は21日の 18時(UTC)から 22日の 24時(UTC)まで有効
西/北西の風 9kt
視程: 10km
晴天
22日の 0400時(UTC)から
北/北西の風 5kt
視程: 10km
高度25000ftの雲はほとんどない
22日の 0900時(UTC)から
変向風 3kt
視程: 10km
高度25000ftの雲はほとんどない
22日の 1900時(UTC)から
西/南西の風 8kt
視程: 10km
高度25000ftの雲は散在している

TAF: KSEA 211726Z 2118/2224 30009KT P6SM SKC FM220400 34005KT P6SM FEW250 FM220900 VRB03KT P6SM FEW250 FM221900 25008KT P6SM SCT250

4,000以上の空港の気象観測と天気予報(METAR報とTAF報)

利用可能な観測所は地図上に黄色い丸と赤い丸で示す。

丸の上にカーソルを重ねると観測所名を参照できる。

次にクリックすると気象観測と天気予報を参照できる。

マップの切り替え:黒色「×」印の緑ボタンをクリックして拡大、「-」印の緑ボタンをクリックして縮小、緑色の三角印をクリックして隣りの地図に切り替え


METAR-TAF: